Time;durP1;ratioP1;P1;durP2;ratioP2;P2;SDS_P1;SDS_P2;PMS_P1;PMS_P2;Temp;Humidity;BMP_temperature;BMP_pressure;BME280_temperature;BME280_humidity;BME280_pressure;Samples;Min_cycle;Max_cycle;Signal;HPM_P1;HPM_P2
2022/03/29 00:01:56;;;;;;;29.98;15.95;;;8.10;99.90;;;;;;5058976;28;20025;-84
2022/03/29 00:04:22;;;;;;;29.77;15.13;;;8.10;99.90;;;;;;5041437;28;20021;-82
2022/03/29 00:06:48;;;;;;;29.50;14.52;;;8.10;99.90;;;;;;5041577;28;20028;-83
2022/03/29 00:09:16;;;;;;;29.38;15.55;;;8.00;99.90;;;;;;5041172;28;20023;-82
2022/03/29 00:11:42;;;;;;;27.42;16.05;;;7.90;99.90;;;;;;5040671;28;20214;-85
2022/03/29 00:14:08;;;;;;;27.90;15.82;;;7.90;99.90;;;;;;5041975;28;20047;-82
2022/03/29 00:16:34;;;;;;;28.67;16.08;;;7.80;99.90;;;;;;5041661;28;20103;-84
2022/03/29 00:18:59;;;;;;;28.42;16.23;;;7.80;99.90;;;;;;5041677;28;20096;-81
2022/03/29 00:21:25;;;;;;;34.75;17.88;;;7.70;99.90;;;;;;5061204;28;20029;-84
2022/03/29 00:23:51;;;;;;;31.50;16.13;;;7.70;99.90;;;;;;5043132;28;20040;-85
2022/03/29 00:26:17;;;;;;;37.72;17.92;;;7.70;99.90;;;;;;5046624;28;20043;-82
2022/03/29 00:28:43;;;;;;;33.80;17.95;;;7.80;99.90;;;;;;5069890;28;20085;-84
2022/03/29 00:31:12;;;;;;;32.90;17.00;;;7.80;99.90;;;;;;5053826;28;20110;-83
2022/03/29 00:33:38;;;;;;;31.13;17.75;;;7.80;99.90;;;;;;5053913;28;20032;-83
2022/03/29 00:36:04;;;;;;;39.50;18.02;;;7.80;99.90;;;;;;5049206;28;20021;-83
2022/03/29 00:38:29;;;;;;;35.55;17.08;;;7.90;99.90;;;;;;5047456;28;20029;-83
2022/03/29 00:40:55;;;;;;;37.05;17.95;;;7.80;99.90;;;;;;5045467;28;20036;-86
2022/03/29 00:43:21;;;;;;;32.75;17.73;;;7.80;99.90;;;;;;5042046;28;20477;-82
2022/03/29 00:45:47;;;;;;;36.65;17.98;;;7.80;99.90;;;;;;5035797;28;20029;-83
2022/03/29 00:48:14;;;;;;;39.55;19.25;;;7.70;99.90;;;;;;5034101;28;20091;-82
2022/03/29 00:50:40;;;;;;;32.53;17.90;;;7.70;99.90;;;;;;5017702;28;20235;-84
2022/03/29 00:53:08;;;;;;;33.05;17.45;;;7.70;99.90;;;;;;5020330;28;20087;-85
2022/03/29 00:55:34;;;;;;;36.75;18.27;;;7.60;99.90;;;;;;5022517;28;20075;-84
2022/03/29 00:58:08;;;;;;;31.90;17.88;;;7.60;99.90;;;;;;5026047;28;20044;-84
2022/03/29 01:00:35;;;;;;;32.72;18.70;;;7.60;99.90;;;;;;5026362;28;20076;-83
2022/03/29 01:03:03;;;;;;;33.33;18.17;;;7.50;99.90;;;;;;5020637;28;20351;-84
2022/03/29 01:05:32;;;;;;;31.90;17.90;;;7.50;99.90;;;;;;5019804;28;20381;-84
2022/03/29 01:08:00;;;;;;;37.25;20.75;;;7.40;99.90;;;;;;5019420;28;20049;-83
2022/03/29 01:10:26;;;;;;;37.75;19.17;;;7.40;99.90;;;;;;5037678;28;20093;-84
2022/03/29 01:12:54;;;;;;;35.03;19.40;;;7.40;99.90;;;;;;5020429;28;20459;-84
2022/03/29 01:15:23;;;;;;;31.67;18.45;;;7.40;99.90;;;;;;5020587;28;20036;-83
2022/03/29 01:17:49;;;;;;;38.45;19.15;;;7.40;99.90;;;;;;5021572;28;20064;-82
2022/03/29 01:20:27;;;;;;;38.65;18.77;;;7.50;99.90;;;;;;5020295;28;20056;-83
2022/03/29 01:22:54;;;;;;;28.67;17.75;;;7.40;99.90;;;;;;5036987;28;20029;-82
2022/03/29 01:25:27;;;;;;;35.60;18.88;;;7.40;99.90;;;;;;5022246;28;20049;-81
2022/03/29 01:27:53;;;;;;;32.08;17.10;;;7.30;99.90;;;;;;5021993;28;20408;-83
2022/03/29 01:30:21;;;;;;;35.55;19.73;;;7.20;99.90;;;;;;5022031;28;20021;-83
2022/03/29 01:32:51;;;;;;;37.67;18.38;;;7.10;99.90;;;;;;5034321;28;20147;-83
2022/03/29 01:35:25;;;;;;;38.10;20.67;;;7.10;99.90;;;;;;5058024;28;20036;-84
2022/03/29 01:37:52;;;;;;;44.38;24.40;;;7.10;99.90;;;;;;5039396;28;20010;-84
2022/03/29 01:40:22;;;;;;;45.80;26.17;;;7.00;99.90;;;;;;5038020;28;20030;-83
2022/03/29 01:42:52;;;;;;;48.72;29.30;;;7.00;99.90;;;;;;5033465;28;20045;-84
2022/03/29 01:45:20;;;;;;;47.42;26.90;;;7.00;99.90;;;;;;5050752;28;20017;-84
2022/03/29 01:47:47;;;;;;;45.60;25.17;;;6.90;99.90;;;;;;5055919;28;20159;-84
2022/03/29 01:50:14;;;;;;;40.17;22.15;;;6.90;99.90;;;;;;5055708;28;20032;-83
2022/03/29 01:52:42;;;;;;;43.45;24.45;;;6.90;99.90;;;;;;5056120;28;20079;-84
2022/03/29 01:55:11;;;;;;;41.45;24.73;;;7.00;99.90;;;;;;5054726;28;20031;-83
2022/03/29 01:57:37;;;;;;;46.03;24.98;;;7.00;99.90;;;;;;5067721;28;20052;-82
2022/03/29 02:02:50;;;;;;;35.95;21.77;;;7.10;99.90;;;;;;5068315;28;20036;-84
2022/03/29 02:05:17;;;;;;;38.75;20.13;;;7.10;99.90;;;;;;5049463;28;20527;-84
2022/03/29 02:07:46;;;;;;;36.50;19.88;;;7.10;99.90;;;;;;5049879;28;20093;-83
2022/03/29 02:10:18;;;;;;;42.30;22.23;;;7.20;99.90;;;;;;5049845;28;20112;-85
2022/03/29 02:12:45;;;;;;;40.20;21.15;;;7.30;99.90;;;;;;5067356;28;20025;-83
2022/03/29 02:15:11;;;;;;;39.05;22.05;;;7.30;99.90;;;;;;5050223;28;20028;-83
2022/03/29 02:17:36;;;;;;;37.42;21.73;;;7.30;99.90;;;;;;5054245;28;20159;-84
2022/03/29 02:20:03;;;;;;;39.92;22.73;;;7.30;99.90;;;;;;5072048;28;20029;-84
2022/03/29 02:22:29;;;;;;;39.72;23.30;;;7.30;99.90;;;;;;5056007;28;20025;-83
2022/03/29 02:24:54;;;;;;;41.53;23.20;;;7.30;99.90;;;;;;5056534;28;20017;-82
2022/03/29 02:27:20;;;;;;;42.88;23.38;;;7.40;99.90;;;;;;5054490;28;20033;-83
2022/03/29 02:29:50;;;;;;;42.10;23.92;;;7.40;99.90;;;;;;5054879;28;20021;-82
2022/03/29 02:32:15;;;;;;;43.78;23.85;;;7.40;99.90;;;;;;5054865;28;20384;-83
2022/03/29 02:34:41;;;;;;;39.78;23.10;;;7.40;99.90;;;;;;5069988;28;20088;-84
2022/03/29 02:37:08;;;;;;;45.28;23.48;;;7.40;99.90;;;;;;5051231;28;20048;-84
2022/03/29 02:39:36;;;;;;;39.45;22.70;;;7.30;99.90;;;;;;5050252;28;20096;-83
2022/03/29 02:42:02;;;;;;;40.75;23.92;;;7.30;99.90;;;;;;5050519;28;20110;-84
2022/03/29 02:44:27;;;;;;;40.08;24.23;;;7.30;99.90;;;;;;5043122;28;20501;-86
2022/03/29 02:46:53;;;;;;;43.63;25.98;;;7.30;99.90;;;;;;5031858;28;20385;-85
2022/03/29 02:49:19;;;;;;;43.45;24.85;;;7.30;99.90;;;;;;5031901;28;20041;-84
2022/03/29 02:51:45;;;;;;;46.63;25.65;;;7.30;99.90;;;;;;5048387;28;20504;-84
2022/03/29 02:54:10;;;;;;;42.95;25.88;;;7.20;99.90;;;;;;5032216;28;20026;-84
2022/03/29 02:56:36;;;;;;;42.80;25.35;;;7.20;99.90;;;;;;5033954;28;20026;-84
2022/03/29 02:59:01;;;;;;;43.00;26.75;;;7.20;99.90;;;;;;5030245;28;20030;-85
2022/03/29 03:01:29;;;;;;;44.92;25.77;;;7.10;99.90;;;;;;5024181;28;20026;-83
2022/03/29 03:03:56;;;;;;;43.60;26.85;;;7.10;99.90;;;;;;5024212;28;20021;-83
2022/03/29 03:06:22;;;;;;;42.70;27.60;;;7.10;99.90;;;;;;5026105;28;20048;-83
2022/03/29 03:08:48;;;;;;;51.28;27.63;;;7.10;99.90;;;;;;5026533;28;20032;-82
2022/03/29 03:11:13;;;;;;;51.60;28.45;;;7.00;99.90;;;;;;5043458;28;20116;-85
2022/03/29 03:13:39;;;;;;;51.30;28.50;;;7.00;99.90;;;;;;5026722;28;20032;-82
2022/03/29 03:16:05;;;;;;;47.60;27.52;;;7.00;99.90;;;;;;5028624;28;20036;-83
2022/03/29 03:18:32;;;;;;;47.17;26.15;;;6.90;99.90;;;;;;5029186;28;20120;-82
2022/03/29 03:20:58;;;;;;;56.05;30.35;;;6.90;99.90;;;;;;5047204;28;20029;-82
2022/03/29 03:23:24;;;;;;;48.15;28.70;;;6.90;99.90;;;;;;5031032;28;20037;-84
2022/03/29 03:25:54;;;;;;;49.80;27.02;;;6.90;99.90;;;;;;5033164;28;20026;-83
2022/03/29 03:28:20;;;;;;;49.45;27.95;;;6.90;99.90;;;;;;5051356;28;20536;-84
2022/03/29 03:30:46;;;;;;;49.33;29.10;;;6.80;99.90;;;;;;5031712;28;20462;-83
2022/03/29 03:33:11;;;;;;;50.17;29.75;;;6.80;99.90;;;;;;5031622;28;20048;-85
2022/03/29 03:35:37;;;;;;;54.38;30.85;;;6.80;99.90;;;;;;5037717;28;20029;-83
2022/03/29 03:38:04;;;;;;;53.45;29.17;;;6.70;99.90;;;;;;5031145;28;20072;-81
2022/03/29 03:40:30;;;;;;;53.20;30.42;;;6.70;99.90;;;;;;5037299;28;20029;-83
2022/03/29 03:42:55;;;;;;;53.95;30.08;;;6.70;99.90;;;;;;5024480;28;20041;-82
2022/03/29 03:45:22;;;;;;;53.05;30.80;;;6.60;99.90;;;;;;5036965;28;20025;-81
2022/03/29 03:47:48;;;;;;;55.83;31.75;;;6.60;99.90;;;;;;5041302;28;20020;-84
2022/03/29 03:50:14;;;;;;;58.38;31.08;;;6.60;99.90;;;;;;5045847;28;20029;-84
2022/03/29 03:52:39;;;;;;;52.42;31.92;;;6.50;99.90;;;;;;5041759;28;20049;-83
2022/03/29 03:55:06;;;;;;;52.80;30.05;;;6.50;99.90;;;;;;5041709;28;20067;-84
2022/03/29 03:57:31;;;;;;;54.97;30.75;;;6.50;99.90;;;;;;5059493;28;20389;-82
2022/03/29 03:59:57;;;;;;;57.83;32.53;;;6.40;99.90;;;;;;5041316;28;20029;-82
2022/03/29 04:02:23;;;;;;;56.70;30.48;;;6.40;99.90;;;;;;5041639;28;20037;-83
2022/03/29 04:04:49;;;;;;;55.00;32.67;;;6.30;99.90;;;;;;5040803;28;20040;-83
2022/03/29 04:07:15;;;;;;;52.65;30.75;;;6.30;99.90;;;;;;5041642;28;20048;-84
2022/03/29 04:09:41;;;;;;;54.80;31.85;;;6.30;99.90;;;;;;5040738;28;20078;-84
2022/03/29 04:12:07;;;;;;;57.70;32.90;;;6.30;99.90;;;;;;5058998;28;20021;-82
2022/03/29 04:14:33;;;;;;;59.97;34.25;;;6.30;99.90;;;;;;5058878;28;20480;-82
2022/03/29 04:16:58;;;;;;;60.30;33.78;;;6.30;99.90;;;;;;5040791;28;20059;-82
2022/03/29 04:19:24;;;;;;;63.85;35.47;;;6.30;99.90;;;;;;5040676;28;20033;-80
2022/03/29 04:21:50;;;;;;;62.45;34.20;;;6.20;99.90;;;;;;5059025;28;20055;-83
2022/03/29 04:24:16;;;;;;;64.68;34.67;;;6.20;99.90;;;;;;5059623;28;20037;-82
2022/03/29 04:26:42;;;;;;;60.88;33.53;;;6.20;99.90;;;;;;5041609;28;20021;-81
2022/03/29 04:29:07;;;;;;;62.28;34.65;;;6.20;99.90;;;;;;5058671;28;20025;-82
2022/03/29 04:31:33;;;;;;;62.70;33.95;;;6.20;99.90;;;;;;5041028;28;20083;-82
2022/03/29 04:33:59;;;;;;;59.78;35.22;;;6.10;99.90;;;;;;5059565;28;20021;-82
2022/03/29 04:36:26;;;;;;;66.88;36.83;;;6.10;99.90;;;;;;5042074;28;20074;-82
2022/03/29 04:38:52;;;;;;;62.45;34.95;;;6.10;99.90;;;;;;5041824;28;20032;-82
2022/03/29 04:41:18;;;;;;;64.22;35.70;;;6.10;99.90;;;;;;5042164;28;20025;-82
2022/03/29 04:43:43;;;;;;;63.45;34.40;;;6.00;99.90;;;;;;5041121;28;20025;-83
2022/03/29 04:46:09;;;;;;;60.28;33.38;;;6.00;99.90;;;;;;5023018;28;20044;-82
2022/03/29 04:48:35;;;;;;;67.28;37.13;;;5.90;99.90;;;;;;5022516;28;20090;-81
2022/03/29 04:51:01;;;;;;;64.80;37.03;;;5.90;99.90;;;;;;5022831;28;20101;-82
2022/03/29 04:53:27;;;;;;;62.20;33.85;;;5.90;99.90;;;;;;5022779;28;20060;-82
2022/03/29 04:55:52;;;;;;;66.72;36.30;;;5.90;99.90;;;;;;5023597;28;20033;-82
2022/03/29 04:58:18;;;;;;;69.20;36.80;;;5.90;99.90;;;;;;5023412;28;20052;-83
2022/03/29 05:00:44;;;;;;;67.13;36.00;;;5.90;99.90;;;;;;5023251;28;20021;-82
2022/03/29 05:03:09;;;;;;;72.28;37.50;;;5.90;99.90;;;;;;5023606;28;20037;-83
2022/03/29 05:05:35;;;;;;;69.85;38.13;;;5.90;99.90;;;;;;5042248;28;20025;-83
2022/03/29 05:08:00;;;;;;;70.60;38.75;;;5.90;99.90;;;;;;5024818;28;20032;-83
2022/03/29 05:10:26;;;;;;;75.25;40.50;;;5.90;99.90;;;;;;5025811;28;20040;-85
2022/03/29 05:12:55;;;;;;;66.00;37.25;;;5.90;99.90;;;;;;5025667;28;20028;-84
2022/03/29 05:15:21;;;;;;;74.72;41.15;;;5.90;99.90;;;;;;5025725;28;20029;-84
2022/03/29 05:17:49;;;;;;;75.50;39.30;;;5.90;99.90;;;;;;5026673;28;20025;-83
2022/03/29 05:20:17;;;;;;;72.82;36.05;;;5.90;99.90;;;;;;5044829;28;20022;-83
2022/03/29 05:22:52;;;;;;;73.88;38.75;;;6.00;99.90;;;;;;5029221;28;20052;-82
2022/03/29 05:25:21;;;;;;;75.22;39.10;;;6.00;99.90;;;;;;5046970;28;20049;-83
2022/03/29 05:27:47;;;;;;;78.03;38.85;;;6.00;99.90;;;;;;5047903;28;20033;-83
2022/03/29 05:30:14;;;;;;;76.68;40.33;;;6.00;99.90;;;;;;5033189;28;20017;-84
2022/03/29 05:32:40;;;;;;;75.32;37.03;;;6.00;99.90;;;;;;5034494;28;20026;-83
2022/03/29 05:35:08;;;;;;;87.20;41.22;;;6.00;99.90;;;;;;5037254;28;20033;-81
2022/03/29 05:37:36;;;;;;;90.78;41.53;;;6.00;99.90;;;;;;5026266;28;20029;-84
2022/03/29 05:40:07;;;;;;;89.97;42.10;;;6.00;99.90;;;;;;5026508;28;20018;-82
2022/03/29 05:42:40;;;;;;;92.60;43.72;;;6.00;99.90;;;;;;5047357;28;20091;-83
2022/03/29 05:45:09;;;;;;;84.95;41.42;;;6.00;99.90;;;;;;5049406;28;20029;-83
2022/03/29 05:50:20;;;;;;;93.78;42.25;;;6.00;99.90;;;;;;5063030;28;20032;-83
2022/03/29 05:52:45;;;;;;;90.38;41.33;;;6.10;99.90;;;;;;5062123;28;20103;-83
2022/03/29 05:55:11;;;;;;;89.53;42.08;;;6.10;99.90;;;;;;5043903;28;20048;-83
2022/03/29 05:57:37;;;;;;;93.47;43.20;;;6.10;99.90;;;;;;5043296;28;20017;-81
2022/03/29 06:00:04;;;;;;;89.82;40.60;;;6.10;99.90;;;;;;5044378;28;20093;-83
2022/03/29 06:02:30;;;;;;;85.53;40.22;;;6.10;99.90;;;;;;5063306;28;20040;-83
2022/03/29 06:04:55;;;;;;;93.00;42.40;;;6.10;99.90;;;;;;5045979;28;20021;-84
2022/03/29 06:07:21;;;;;;;83.45;40.55;;;6.00;99.90;;;;;;5046812;28;20025;-84
2022/03/29 06:09:46;;;;;;;85.70;43.47;;;6.00;99.90;;;;;;5048352;28;20037;-83
2022/03/29 06:12:12;;;;;;;89.75;42.50;;;6.00;99.90;;;;;;5068901;28;20057;-83
2022/03/29 06:14:38;;;;;;;91.15;42.78;;;6.00;99.90;;;;;;5056097;28;20037;-83
2022/03/29 06:17:06;;;;;;;92.72;43.72;;;6.00;99.90;;;;;;5043252;28;20408;-83
2022/03/29 06:19:31;;;;;;;90.55;42.40;;;6.00;99.90;;;;;;5044819;28;20025;-83
2022/03/29 06:21:57;;;;;;;97.75;43.22;;;5.90;99.90;;;;;;5045777;28;20035;-82
2022/03/29 06:24:23;;;;;;;87.55;41.20;;;5.90;99.90;;;;;;5063283;28;20021;-82
2022/03/29 06:26:49;;;;;;;93.43;44.67;;;5.90;99.90;;;;;;5044855;28;20480;-84
2022/03/29 06:29:14;;;;;;;95.32;45.17;;;5.90;99.90;;;;;;5045397;28;20025;-84
2022/03/29 06:31:40;;;;;;;102.93;44.55;;;6.00;99.90;;;;;;5045116;28;20029;-82
2022/03/29 06:34:06;;;;;;;98.13;43.78;;;5.90;99.90;;;;;;5044597;28;20135;-82
2022/03/29 06:36:31;;;;;;;101.63;45.60;;;5.90;99.90;;;;;;5062250;28;20021;-82
2022/03/29 06:38:57;;;;;;;100.70;45.33;;;6.00;99.90;;;;;;5044841;28;20063;-82
2022/03/29 06:41:23;;;;;;;105.68;45.83;;;6.10;99.90;;;;;;5061861;28;20017;-82
2022/03/29 06:43:48;;;;;;;102.25;46.33;;;6.20;99.90;;;;;;5041384;28;20032;-83
2022/03/29 06:46:15;;;;;;;95.10;43.50;;;6.30;99.90;;;;;;5023574;28;20548;-82
2022/03/29 06:48:42;;;;;;;98.82;43.88;;;6.30;99.90;;;;;;5023430;28;20072;-82
2022/03/29 06:51:14;;;;;;;96.60;47.35;;;6.40;99.90;;;;;;5024312;28;20049;-84
2022/03/29 06:53:41;;;;;;;99.32;45.60;;;6.40;99.90;;;;;;5023479;28;20580;-82
2022/03/29 06:56:07;;;;;;;94.55;44.05;;;6.40;99.90;;;;;;5040000;28;20025;-82
2022/03/29 06:58:36;;;;;;;103.32;46.17;;;6.40;99.90;;;;;;5021606;28;20051;-82
2022/03/29 07:01:03;;;;;;;99.22;44.38;;;6.30;99.90;;;;;;5021383;28;20021;-82
2022/03/29 07:03:30;;;;;;;93.43;43.30;;;6.30;99.90;;;;;;5020951;28;20520;-84
2022/03/29 07:05:56;;;;;;;90.57;42.17;;;6.40;99.90;;;;;;5020184;28;20049;-83
2022/03/29 07:08:22;;;;;;;89.25;42.20;;;6.40;99.90;;;;;;5038704;28;20073;-83
2022/03/29 07:13:33;;;;;;;95.75;45.33;;;6.40;99.90;;;;;;5042783;28;20527;-85
2022/03/29 07:15:58;;;;;;;93.05;43.47;;;6.50;99.90;;;;;;5024418;28;20034;-84
2022/03/29 07:18:24;;;;;;;85.75;41.47;;;6.40;99.90;;;;;;5041695;28;20096;-84
2022/03/29 07:20:51;;;;;;;80.00;41.53;;;6.50;99.90;;;;;;5024746;28;20393;-83
2022/03/29 07:23:16;;;;;;;79.60;39.70;;;6.50;99.90;;;;;;5024485;28;20113;-82
2022/03/29 07:25:42;;;;;;;82.82;42.47;;;6.60;99.90;;;;;;5024879;28;20075;-83
2022/03/29 07:28:11;;;;;;;77.80;41.38;;;6.70;99.90;;;;;;5041474;28;20025;-87
2022/03/29 07:30:38;;;;;;;79.63;40.95;;;6.80;99.90;;;;;;5025119;28;20018;-86
2022/03/29 07:33:04;;;;;;;78.03;39.95;;;6.80;99.90;;;;;;5023746;28;20112;-85
2022/03/29 07:35:31;;;;;;;85.60;44.53;;;6.90;99.90;;;;;;5024679;28;20104;-86
2022/03/29 07:37:58;;;;;;;88.72;44.50;;;6.90;99.90;;;;;;5024466;28;20056;-84
2022/03/29 07:40:26;;;;;;;89.03;44.92;;;7.00;99.90;;;;;;5031606;28;20049;-81
2022/03/29 07:42:52;;;;;;;84.68;45.63;;;6.90;99.90;;;;;;5033813;28;20021;-81
2022/03/29 07:45:19;;;;;;;82.15;42.22;;;6.90;99.90;;;;;;5049429;28;20017;-86
2022/03/29 07:47:55;;;;;;;79.40;41.95;;;6.90;99.90;;;;;;5073366;28;20025;-83
2022/03/29 07:50:21;;;;;;;86.00;43.97;;;7.00;99.90;;;;;;5054850;28;20100;-83
2022/03/29 07:52:47;;;;;;;87.18;44.70;;;7.00;99.90;;;;;;5051224;28;20036;-82
2022/03/29 07:55:13;;;;;;;82.70;44.92;;;7.00;99.90;;;;;;5061945;28;20122;-87
2022/03/29 07:57:40;;;;;;;79.00;42.10;;;7.00;99.90;;;;;;5043587;28;20029;-86
2022/03/29 08:02:54;;;;;;;80.05;43.17;;;7.00;99.90;;;;;;5061367;28;20032;-85
2022/03/29 08:05:20;;;;;;;82.20;42.83;;;7.00;99.90;;;;;;5041555;28;20021;-85
2022/03/29 08:07:46;;;;;;;77.65;43.10;;;7.10;99.90;;;;;;5042290;28;20078;-85
2022/03/29 08:10:12;;;;;;;75.85;40.35;;;7.10;99.90;;;;;;5059899;28;20025;-85
2022/03/29 08:12:39;;;;;;;82.10;42.50;;;7.10;99.90;;;;;;5041557;28;20025;-85
2022/03/29 08:15:06;;;;;;;83.60;41.63;;;7.10;99.90;;;;;;5041260;28;20025;-86
2022/03/29 08:17:33;;;;;;;86.05;42.42;;;7.10;99.90;;;;;;5041011;28;20032;-84
2022/03/29 08:19:58;;;;;;;78.97;43.53;;;7.20;99.90;;;;;;5041837;28;20029;-86
2022/03/29 08:22:24;;;;;;;81.15;41.78;;;7.20;99.90;;;;;;5041129;28;20461;-84
2022/03/29 08:24:50;;;;;;;77.05;41.88;;;7.20;99.90;;;;;;5059933;28;20029;-83
2022/03/29 08:27:15;;;;;;;81.50;41.42;;;7.30;99.90;;;;;;5041785;28;20389;-86
2022/03/29 08:29:41;;;;;;;80.15;41.33;;;7.30;99.90;;;;;;5041352;28;20428;-86
2022/03/29 08:32:07;;;;;;;83.30;42.63;;;7.30;99.90;;;;;;5059620;28;20044;-85
2022/03/29 08:34:33;;;;;;;74.28;40.10;;;7.30;99.90;;;;;;5068953;28;20126;-84
2022/03/29 08:36:58;;;;;;;70.43;38.83;;;7.30;99.90;;;;;;5054521;28;20029;-84
2022/03/29 08:39:24;;;;;;;81.10;41.60;;;7.30;99.90;;;;;;5068769;28;20076;-83
2022/03/29 08:41:55;;;;;;;74.03;39.15;;;7.30;99.90;;;;;;5040227;28;20114;-86
2022/03/29 08:44:23;;;;;;;75.78;40.45;;;7.40;99.90;;;;;;5051659;28;20018;-85
2022/03/29 08:46:50;;;;;;;75.75;40.00;;;7.40;99.90;;;;;;5021815;28;20025;-86
2022/03/29 08:49:19;;;;;;;77.80;41.40;;;7.50;99.90;;;;;;5021673;28;20034;-85
2022/03/29 08:51:46;;;;;;;79.03;40.00;;;7.60;99.90;;;;;;5022816;28;20017;-83
2022/03/29 08:54:12;;;;;;;73.28;40.58;;;7.60;99.90;;;;;;5021705;28;20022;-85
2022/03/29 08:56:39;;;;;;;75.10;40.70;;;7.60;99.90;;;;;;5019612;28;20084;-87
2022/03/29 08:59:05;;;;;;;71.60;38.05;;;7.70;99.90;;;;;;5037437;28;20018;-86
2022/03/29 09:01:31;;;;;;;77.13;40.08;;;7.70;99.90;;;;;;5019692;28;20072;-82
2022/03/29 09:04:06;;;;;;;78.50;38.75;;;7.70;99.90;;;;;;5019599;28;20474;-88
2022/03/29 09:06:31;;;;;;;74.32;38.65;;;7.80;99.90;;;;;;5019503;28;20086;-84
2022/03/29 09:08:57;;;;;;;70.68;38.13;;;8.00;99.90;;;;;;5019758;28;20114;-84
2022/03/29 09:11:23;;;;;;;71.18;38.05;;;8.00;99.90;;;;;;5019001;28;20022;-85
2022/03/29 09:14:07;;;;;;;74.65;40.10;;;8.20;99.90;;;;;;5037985;28;20037;-86
2022/03/29 09:16:34;;;;;;;65.10;36.58;;;8.20;99.90;;;;;;5036591;28;20521;-85
2022/03/29 09:19:00;;;;;;;71.50;37.83;;;8.20;99.90;;;;;;5036542;28;20025;-84
2022/03/29 09:21:27;;;;;;;74.88;39.00;;;8.20;99.90;;;;;;5018734;28;20040;-85
2022/03/29 09:24:14;;;;;;;79.35;41.92;;;8.30;99.90;;;;;;5036893;28;20031;-85
2022/03/29 09:26:41;;;;;;;69.85;38.22;;;8.10;99.90;;;;;;5038515;28;20435;-83
2022/03/29 09:29:20;;;;;;;68.05;36.97;;;8.10;99.90;;;;;;5038350;28;20045;-85
2022/03/29 09:31:49;;;;;;;71.18;38.95;;;8.20;99.90;;;;;;5018691;28;20033;-83
2022/03/29 09:34:23;;;;;;;63.45;35.80;;;8.20;99.90;;;;;;5022653;28;20093;-84
2022/03/29 09:36:51;;;;;;;67.30;37.13;;;8.30;99.90;;;;;;5023803;28;20041;-83
2022/03/29 09:39:38;;;;;;;71.95;37.33;;;8.30;99.90;;;;;;5017771;28;20022;-82
2022/03/29 09:42:09;;;;;;;72.43;38.75;;;8.40;99.90;;;;;;5018584;28;20036;-84
2022/03/29 09:44:57;;;;;;;72.65;39.67;;;8.50;99.90;;;;;;5026574;28;20035;-84
2022/03/29 09:47:26;;;;;;;68.32;37.05;;;8.60;99.90;;;;;;5054482;28;20040;-84
2022/03/29 09:50:01;;;;;;;62.70;37.03;;;8.70;99.90;;;;;;5036744;28;20117;-85
2022/03/29 09:52:29;;;;;;;71.05;39.00;;;8.80;99.90;;;;;;5039741;28;20111;-85
2022/03/29 09:55:06;;;;;;;69.25;37.47;;;8.90;99.90;;;;;;5043154;28;20054;-84
2022/03/29 09:57:38;;;;;;;66.28;35.90;;;8.90;99.90;;;;;;5042900;28;20025;-86
2022/03/29 10:00:08;;;;;;;67.43;38.00;;;8.90;99.90;;;;;;5043403;28;20025;-86
2022/03/29 10:02:40;;;;;;;70.68;38.03;;;8.80;99.90;;;;;;5042534;28;20035;-85
2022/03/29 10:05:10;;;;;;;72.28;39.45;;;8.80;99.90;;;;;;5060318;28;20077;-84
2022/03/29 10:07:42;;;;;;;68.78;38.25;;;8.80;99.90;;;;;;5042835;28;20392;-86
2022/03/29 10:10:08;;;;;;;73.53;39.50;;;8.80;99.90;;;;;;5042801;28;20520;-86
2022/03/29 10:12:35;;;;;;;70.68;37.83;;;8.80;99.90;;;;;;5043602;28;20036;-87
2022/03/29 10:15:01;;;;;;;72.38;39.13;;;8.70;99.90;;;;;;5044599;28;20025;-83
2022/03/29 10:17:28;;;;;;;68.97;37.85;;;8.70;99.90;;;;;;5062526;28;20130;-85
2022/03/29 10:19:55;;;;;;;68.75;38.15;;;8.70;99.90;;;;;;5042990;28;20032;-84
2022/03/29 10:22:21;;;;;;;79.38;40.03;;;8.70;99.90;;;;;;5062411;28;20029;-87
2022/03/29 10:24:47;;;;;;;71.13;40.20;;;8.80;99.90;;;;;;5045061;28;20568;-86
2022/03/29 10:27:17;;;;;;;74.15;40.03;;;8.90;99.90;;;;;;5045490;28;20029;-87
2022/03/29 10:29:42;;;;;;;76.45;40.88;;;9.00;99.90;;;;;;5045397;28;20078;-87
2022/03/29 10:32:10;;;;;;;71.47;40.20;;;9.10;99.90;;;;;;5047337;28;20096;-85
2022/03/29 10:34:40;;;;;;;66.95;37.05;;;9.10;99.90;;;;;;5043528;28;20029;-83
2022/03/29 10:37:16;;;;;;;69.00;35.88;;;9.20;99.90;;;;;;5043983;28;20389;-84
2022/03/29 10:39:45;;;;;;;;;;;9.10;99.90;;;;;;5044148;28;20028;-83
2022/03/29 10:42:26;;;;;;;65.00;37.58;;;9.10;99.90;;;;;;5043906;28;19913;-85
2022/03/29 10:45:18;;;;;;;75.75;37.92;;;9.00;99.90;;;;;;5050849;28;20022;-83
2022/03/29 10:48:04;;;;;;;72.20;36.55;;;9.00;99.90;;;;;;5018000;28;20101;-87
2022/03/29 10:50:53;;;;;;;66.40;34.43;;;9.10;99.90;;;;;;5023777;28;20021;-84
2022/03/29 10:53:45;;;;;;;70.20;36.38;;;9.10;99.90;;;;;;5023327;28;20041;-86
2022/03/29 10:56:15;;;;;;;71.05;35.05;;;9.20;99.90;;;;;;5041958;28;20104;-84
2022/03/29 10:59:02;;;;;;;65.10;35.20;;;9.30;99.90;;;;;;5024154;28;20477;-86
2022/03/29 11:01:29;;;;;;;75.97;36.08;;;9.30;99.90;;;;;;5041719;28;20088;-85
2022/03/29 11:04:06;;;;;;;70.68;36.65;;;9.30;99.90;;;;;;5023615;28;20443;-82
2022/03/29 11:06:32;;;;;;;69.75;34.75;;;9.30;99.90;;;;;;5041065;28;20025;-87
2022/03/29 11:09:07;;;;;;;59.55;32.55;;;9.40;99.90;;;;;;5024692;28;20022;-86
2022/03/29 11:11:51;;;;;;;60.97;32.92;;;9.60;99.90;;;;;;5024121;28;20048;-84
2022/03/29 11:14:35;;;;;;;61.50;31.52;;;9.80;99.90;;;;;;5023917;28;20454;-85
2022/03/29 11:17:04;;;;;;;65.55;31.77;;;10.10;99.90;;;;;;5024300;28;20413;-84
2022/03/29 11:19:47;;;;;;;61.17;31.15;;;10.30;99.90;;;;;;5024782;28;20025;-86
2022/03/29 11:22:32;;;;;;;63.30;31.30;;;10.40;99.90;;;;;;5027086;28;20022;-81
2022/03/29 11:25:09;;;;;;;64.18;31.17;;;10.50;99.90;;;;;;5037317;28;20044;-83
2022/03/29 11:27:36;;;;;;;64.57;31.08;;;10.40;99.90;;;;;;5030469;28;20026;-80
2022/03/29 11:30:08;;;;;;;61.10;30.73;;;10.50;99.90;;;;;;5038361;28;20026;-80
2022/03/29 11:32:35;;;;;;;62.83;32.67;;;10.60;99.90;;;;;;5056292;28;20149;-80
2022/03/29 11:35:04;;;;;;;64.60;32.05;;;10.80;99.90;;;;;;5050432;28;20044;-85
2022/03/29 11:37:32;;;;;;;59.08;30.77;;;10.90;99.90;;;;;;5023385;28;20029;-84
2022/03/29 11:40:00;;;;;;;63.55;33.05;;;11.00;99.90;;;;;;5040549;28;20037;-85
2022/03/29 11:42:44;;;;;;;68.57;37.22;;;11.30;99.90;;;;;;5022173;28;20108;-85
2022/03/29 11:45:11;;;;;;;68.13;37.85;;;11.50;99.90;;;;;;5035378;28;20021;-85
2022/03/29 11:47:38;;;;;;;73.75;40.20;;;11.50;99.90;;;;;;5041673;28;20495;-85
2022/03/29 11:50:04;;;;;;;79.93;42.95;;;11.30;99.90;;;;;;5041194;28;20029;-86
2022/03/29 11:52:34;;;;;;;93.30;47.40;;;11.40;99.90;;;;;;5042282;28;20029;-83
2022/03/29 11:55:00;;;;;;;70.70;38.58;;;11.50;99.90;;;;;;5061043;28;20057;-83
2022/03/29 11:57:30;;;;;;;61.78;34.38;;;11.70;99.90;;;;;;5060733;28;20025;-82
2022/03/29 11:59:57;;;;;;;70.43;38.70;;;11.50;99.90;;;;;;5041899;28;20040;-86
2022/03/29 12:02:25;;;;;;;75.53;42.30;;;11.60;99.90;;;;;;5058810;28;20611;-86
2022/03/29 12:04:51;;;;;;;74.82;43.08;;;11.70;99.90;;;;;;5058871;28;20021;-83
2022/03/29 12:07:40;;;;;;;76.07;43.05;;;11.60;99.90;;;;;;5040855;28;20021;-84
2022/03/29 12:10:07;;;;;;;75.20;40.28;;;11.50;99.90;;;;;;5041161;28;20033;-87
2022/03/29 12:12:33;;;;;;;66.93;37.22;;;11.50;99.90;;;;;;5040457;28;20025;-86
2022/03/29 12:15:03;;;;;;;68.72;39.65;;;11.30;99.90;;;;;;5059171;28;20085;-84
2022/03/29 12:17:29;;;;;;;65.03;37.63;;;11.30;99.90;;;;;;5041734;28;20036;-87
2022/03/29 12:19:56;;;;;;;69.32;38.13;;;11.30;99.90;;;;;;5059219;28;20028;-84
2022/03/29 12:22:23;;;;;;;63.13;37.28;;;11.40;99.90;;;;;;5058465;28;20056;-85
2022/03/29 12:24:55;;;;;;;62.83;37.00;;;11.20;99.90;;;;;;5040654;28;20028;-83
2022/03/29 12:27:21;;;;;;;63.28;36.05;;;11.20;99.90;;;;;;5059305;28;20021;-85
2022/03/29 12:29:51;;;;;;;69.85;38.00;;;11.20;99.90;;;;;;5058082;28;20048;-85
2022/03/29 12:32:18;;;;;;;56.90;34.38;;;11.30;99.90;;;;;;5040555;28;20047;-83
2022/03/29 12:34:44;;;;;;;62.20;34.05;;;11.40;99.90;;;;;;5057417;28;20116;-85
2022/03/29 12:37:14;;;;;;;57.17;33.22;;;11.40;99.90;;;;;;5039030;28;20079;-83
2022/03/29 12:39:42;;;;;;;62.08;33.55;;;11.50;99.90;;;;;;5057230;28;20056;-84
2022/03/29 12:42:14;;;;;;;57.60;34.05;;;11.60;99.90;;;;;;5058666;28;20035;-85
2022/03/29 12:44:48;;;;;;;61.33;36.60;;;11.60;99.90;;;;;;5030509;28;20041;-85
2022/03/29 12:47:16;;;;;;;59.65;32.65;;;11.70;99.90;;;;;;5020979;28;20021;-86
2022/03/29 12:49:43;;;;;;;52.35;32.05;;;11.70;99.90;;;;;;5021299;28;20022;-86
2022/03/29 12:52:11;;;;;;;55.42;33.35;;;11.80;99.90;;;;;;5039427;28;20030;-86